עמוד ראשי
METAR-TAF:

METAR-TAF

שדות תעופה :

נמל התעופה חורחה ניוברי

בואנוס איירס, ארגנטינה

קו רוחב: 34-34S, קו אורך: 058-25W, גובה: 6מטר

תצפית מזג אוויר נוכחית

הדו"ח נערך לפני 55דקות, בשעה 22:00 UTC
רוח 2קשר עם כיוונים משתנים
טמפרטורת 18 צלסיוס
לחות 59%
לחץ 1010 hPa
ראות 10 קילומטר או יותר
ללא עננים שבסיסם נמוך מ 5000 רגל או קומולונימבוס

METAR: SABE 142200Z VRB02KT CAVOK 18/10 Q1010 NOSIG

זמן: 19:55 (22:55 UTC)

תחזית

הדו"ח נערך לפני 5 שעות ו 55דקות, בשעה 17:00 UTC
תחזית בתוקף מ 14 ב 18 UTC עד 15 ב 18 UTC
רוח 10קשר מכיוון דרום/דרום-מזרח
ראות 10 קילומטר או יותר
ללא עננים שבסיסם נמוך מ 5000 רגל או קומולונימבוס
יעשה מ
14 ב 23 UTC עד 15 ב 01 UTC
רוח 10קשר מכיוון דרום-מערב

TAF: SABE 141700Z 1418/1518 16010KT CAVOK TX20/1518Z TN11/1511Z BECMG 1423/1501 23010KT

תצפיות ותחזיות מזג אוויר לגבי יותר מ- 4,000 שדות תעופה ברחבי העולם. דוחות METAR ו- TAF.

התחנות הזמינות מסומנות בנקודות צהובות ואדומות על גבי המפה.

העבר את העכבר לנקודה הצבעונית על מנת לראות את שם התחנה.

לאחר מכן, לחץ כדי לראות את תוכן ואת תחזיות מזג האוויר.

כדי לשנות את המפה: לחץ על הכפתורים הירוקים עם הפלוס השחור כדי להתקרב; על הכפתור הירוק עם המקף כדי להתרחק; או בחיצים הירוקים למפות סמוכות.


METAR-TAF: